Time;durP1;ratioP1;P1;durP2;ratioP2;P2;SDS_P1;SDS_P2;PMS_P1;PMS_P2;Temp;Humidity;BMP_temperature;BMP_pressure;BME280_temperature;BME280_humidity;BME280_pressure;Samples;Min_cycle;Max_cycle;Signal;HPM_P1;HPM_P2
2022/04/07 00:03:42;;;;;;;11.10;4.32;;;;;;;;;;10319275;28;20536;-72
2022/04/07 00:08:42;;;;;;;6.93;3.33;;;;;;;;;;10317645;28;20023;-68
2022/04/07 00:13:43;;;;;;;7.40;3.93;;;;;;;;;;10318493;28;20022;-69
2022/04/07 00:18:43;;;;;;;5.88;3.35;;;;;;;;;;10318457;28;20458;-70
2022/04/07 00:23:43;;;;;;;5.20;3.47;;;;;;;;;;10318181;28;20130;-70
2022/04/07 00:28:43;;;;;;;6.13;3.50;;;;;;;;;;10317021;28;20076;-69
2022/04/07 00:33:44;;;;;;;8.07;3.85;;;;;;;;;;10316969;28;20018;-70
2022/04/07 00:38:44;;;;;;;5.87;3.43;;;;;;;;;;10317310;28;20046;-70
2022/04/07 00:43:48;;;;;;;6.20;3.23;;;;;;;;;;10317082;28;20018;-73
2022/04/07 00:48:49;;;;;;;4.75;3.55;;;;;;;;;;10300829;28;20109;-69
2022/04/07 00:53:49;;;;;;;8.15;3.83;;;;;;;;;;10317560;28;20029;-72
2022/04/07 00:58:49;;;;;;;4.50;3.35;;;;;;;;;;10316340;28;20479;-68
2022/04/07 01:03:50;;;;;;;13.05;3.78;;;;;;;;;;10316250;28;20508;-68
2022/04/07 01:08:50;;;;;;;5.25;3.67;;;;;;;;;;10316503;28;20036;-70
2022/04/07 01:13:51;;;;;;;17.52;4.78;;;;;;;;;;10316141;28;20061;-72
2022/04/07 01:18:51;;;;;;;6.97;3.65;;;;;;;;;;10315808;28;20033;-69
2022/04/07 01:24:01;;;;;;;5.65;3.42;;;;;;;;;;10317071;28;20548;-69
2022/04/07 01:29:01;;;;;;;7.32;3.78;;;;;;;;;;10317178;28;20030;-72
2022/04/07 01:34:02;;;;;;;7.97;4.47;;;;;;;;;;10317557;28;20026;-69
2022/04/07 01:39:03;;;;;;;6.10;3.45;;;;;;;;;;10322090;28;20573;-70
2022/04/07 01:44:04;;;;;;;26.50;5.70;;;;;;;;;;10323412;28;20076;-69
2022/04/07 01:49:04;;;;;;;6.40;3.55;;;;;;;;;;10321809;28;20036;-71
2022/04/07 01:54:06;;;;;;;15.32;4.07;;;;;;;;;;10322050;28;20027;-69
2022/04/07 01:59:08;;;;;;;15.18;3.90;;;;;;;;;;10321692;28;20026;-72
2022/04/07 02:04:08;;;;;;;6.65;4.10;;;;;;;;;;10321584;28;20020;-72
2022/04/07 02:09:09;;;;;;;8.52;3.42;;;;;;;;;;10323272;28;20030;-68
2022/04/07 02:14:09;;;;;;;4.43;3.40;;;;;;;;;;10322823;28;20428;-70
2022/04/07 02:19:09;;;;;;;6.85;3.40;;;;;;;;;;10322116;28;20457;-69
2022/04/07 02:24:10;;;;;;;6.05;3.83;;;;;;;;;;10322924;28;20023;-71
2022/04/07 02:29:11;;;;;;;5.05;3.28;;;;;;;;;;10321282;28;20135;-68
2022/04/07 02:34:11;;;;;;;5.53;3.80;;;;;;;;;;10320706;28;20022;-69
2022/04/07 02:39:11;;;;;;;6.35;3.78;;;;;;;;;;10320198;28;20056;-69
2022/04/07 02:44:12;;;;;;;9.18;4.35;;;;;;;;;;10304079;28;20481;-69
2022/04/07 02:49:12;;;;;;;6.60;3.53;;;;;;;;;;10321469;28;20043;-71
2022/04/07 02:54:13;;;;;;;4.43;3.40;;;;;;;;;;10319969;28;20022;-77
2022/04/07 02:59:13;;;;;;;8.02;3.67;;;;;;;;;;10319785;28;20033;-69
2022/04/07 03:04:13;;;;;;;5.07;3.43;;;;;;;;;;10319537;28;20572;-69
2022/04/07 03:09:13;;;;;;;2.42;1.95;;;;;;;;;;10303665;28;20023;-73
2022/04/07 03:14:14;;;;;;;4.80;3.50;;;;;;;;;;10320695;28;20034;-71
2022/04/07 03:19:16;;;;;;;7.22;4.00;;;;;;;;;;10318859;28;20014;-71
2022/04/07 03:24:16;;;;;;;7.18;4.32;;;;;;;;;;10319165;28;20076;-69
2022/04/07 03:29:19;;;;;;;7.72;4.25;;;;;;;;;;10302756;28;20035;-69
2022/04/07 03:34:19;;;;;;;7.97;4.22;;;;;;;;;;10318816;28;20022;-71
2022/04/07 03:39:20;;;;;;;9.73;4.32;;;;;;;;;;10318310;28;20050;-73
2022/04/07 03:44:20;;;;;;;7.70;3.35;;;;;;;;;;10302162;28;20063;-71
2022/04/07 03:49:20;;;;;;;8.52;3.42;;;;;;;;;;10318060;28;20105;-71
2022/04/07 03:54:21;;;;;;;6.80;4.30;;;;;;;;;;10318154;28;20100;-70
2022/04/07 03:59:21;;;;;;;8.68;4.05;;;;;;;;;;10317372;28;20033;-72
2022/04/07 04:04:22;;;;;;;8.20;4.23;;;;;;;;;;10317600;28;20071;-70
2022/04/07 04:09:22;;;;;;;8.27;4.47;;;;;;;;;;10301607;28;20026;-72
2022/04/07 04:14:22;;;;;;;7.00;4.40;;;;;;;;;;10317620;28;20030;-71
2022/04/07 04:19:22;;;;;;;4.47;3.40;;;;;;;;;;10349937;28;20090;-74
2022/04/07 04:24:23;;;;;;;13.48;4.88;;;;;;;;;;10356396;28;20101;-71
2022/04/07 04:29:23;;;;;;;7.77;4.80;;;;;;;;;;10356979;28;20029;-70
2022/04/07 04:34:23;;;;;;;9.93;6.53;;;;;;;;;;10322942;28;20035;-71
2022/04/07 04:39:24;;;;;;;8.32;4.88;;;;;;;;;;10314465;28;20557;-71
2022/04/07 04:44:24;;;;;;;10.60;4.60;;;;;;;;;;10344732;28;20018;-73
2022/04/07 04:49:24;;;;;;;8.55;4.70;;;;;;;;;;10325171;28;20018;-74
2022/04/07 04:54:25;;;;;;;9.70;4.63;;;;;;;;;;10317413;28;20022;-71
2022/04/07 04:59:25;;;;;;;9.15;4.82;;;;;;;;;;10317842;28;20092;-72
2022/04/07 05:04:25;;;;;;;12.97;5.00;;;;;;;;;;10315991;28;20022;-72
2022/04/07 05:09:26;;;;;;;9.53;4.67;;;;;;;;;;10320545;28;20519;-71
2022/04/07 05:14:26;;;;;;;9.90;4.55;;;;;;;;;;10363079;28;20118;-71
2022/04/07 05:19:26;;;;;;;16.65;5.00;;;;;;;;;;10363012;28;20032;-74
2022/04/07 05:24:26;;;;;;;7.27;4.70;;;;;;;;;;10353322;28;20065;-72
2022/04/07 05:29:27;;;;;;;6.45;4.30;;;;;;;;;;10321876;28;20513;-71
2022/04/07 05:34:27;;;;;;;11.45;7.30;;;;;;;;;;10321817;28;20388;-72
2022/04/07 05:39:27;;;;;;;7.88;4.40;;;;;;;;;;10321466;28;20133;-79
2022/04/07 05:44:28;;;;;;;13.27;5.23;;;;;;;;;;10321402;28;20022;-72
2022/04/07 05:49:28;;;;;;;7.20;4.73;;;;;;;;;;10321641;28;20037;-71
2022/04/07 05:54:28;;;;;;;14.52;4.82;;;;;;;;;;10321032;28;20144;-74
2022/04/07 05:59:28;;;;;;;10.07;4.65;;;;;;;;;;10322135;28;20409;-72
2022/04/07 06:04:29;;;;;;;8.02;4.00;;;;;;;;;;10322310;28;20027;-74
2022/04/07 06:09:29;;;;;;;9.63;4.25;;;;;;;;;;10321461;28;20493;-72
2022/04/07 06:14:29;;;;;;;13.97;4.93;;;;;;;;;;10321028;28;20547;-74
2022/04/07 06:19:30;;;;;;;12.73;5.55;;;;;;;;;;10320678;28;20139;-75
2022/04/07 06:24:30;;;;;;;9.33;5.47;;;;;;;;;;10320845;28;20224;-73
2022/04/07 06:29:30;;;;;;;10.73;5.60;;;;;;;;;;10320434;28;20433;-72
2022/04/07 06:34:31;;;;;;;20.90;5.70;;;;;;;;;;10321683;28;20273;-76
2022/04/07 06:39:31;;;;;;;8.17;5.20;;;;;;;;;;10321518;28;20050;-75
2022/04/07 06:44:31;;;;;;;12.47;4.73;;;;;;;;;;10321443;28;20010;-75
2022/04/07 06:49:32;;;;;;;13.20;6.00;;;;;;;;;;10319553;28;20026;-73
2022/04/07 06:54:32;;;;;;;18.98;7.22;;;;;;;;;;10321344;28;20073;-72
2022/04/07 06:59:32;;;;;;;11.75;5.10;;;;;;;;;;10319440;28;20023;-71
2022/04/07 07:04:33;;;;;;;10.48;5.22;;;;;;;;;;10320832;28;20413;-70
2022/04/07 07:09:33;;;;;;;15.43;7.28;;;;;;;;;;10319517;28;20525;-72
2022/04/07 07:14:34;;;;;;;7.43;4.90;;;;;;;;;;10320490;28;20100;-73
2022/04/07 07:19:34;;;;;;;8.55;4.97;;;;;;;;;;10319159;28;20030;-70
2022/04/07 07:24:34;;;;;;;12.98;5.80;;;;;;;;;;10318633;28;20018;-72
2022/04/07 07:29:35;;;;;;;7.65;4.13;;;;;;;;;;10318874;28;20113;-73
2022/04/07 07:34:35;;;;;;;11.48;4.72;;;;;;;;;;10317817;28;20034;-71
2022/04/07 07:39:35;;;;;;;14.45;4.88;;;;;;;;;;10318507;28;20138;-72
2022/04/07 07:44:35;;;;;;;10.32;4.95;;;;;;;;;;10318009;28;20462;-71
2022/04/07 07:49:36;;;;;;;25.45;5.47;;;;;;;;;;10318266;28;20425;-73
2022/04/07 07:54:36;;;;;;;11.65;4.78;;;;;;;;;;10317785;28;20037;-71
2022/04/07 07:59:36;;;;;;;6.75;4.25;;;;;;;;;;10318470;28;20030;-70
2022/04/07 08:04:36;;;;;;;6.95;3.78;;;;;;;;;;10301110;28;20025;-71
2022/04/07 08:09:37;;;;;;;14.48;4.00;;;;;;;;;;10317384;28;20026;-71
2022/04/07 08:14:37;;;;;;;14.25;4.18;;;;;;;;;;10318639;28;20038;-75
2022/04/07 08:19:40;;;;;;;5.35;3.78;;;;;;;;;;10317349;28;20023;-74
2022/04/07 08:24:40;;;;;;;8.32;3.88;;;;;;;;;;10317057;28;20125;-73
2022/04/07 08:29:40;;;;;;;11.43;4.15;;;;;;;;;;10316509;28;20030;-70
2022/04/07 08:34:41;;;;;;;7.97;3.50;;;;;;;;;;10316755;28;20030;-71
2022/04/07 08:39:41;;;;;;;12.32;3.90;;;;;;;;;;10318065;28;20058;-71
2022/04/07 08:44:41;;;;;;;9.13;3.43;;;;;;;;;;10320663;28;20036;-72
2022/04/07 08:49:42;;;;;;;11.23;3.57;;;;;;;;;;10307611;28;20030;-71
2022/04/07 08:54:46;;;;;;;9.48;3.45;;;;;;;;;;10323903;28;20416;-77
2022/04/07 08:59:46;;;;;;;17.10;4.00;;;;;;;;;;10324022;28;20027;-77
2022/04/07 09:04:47;;;;;;;13.10;4.97;;;;;;;;;;10323508;28;20026;-78
2022/04/07 09:09:56;;;;;;;12.65;5.43;;;;;;;;;;10323211;28;20618;-72
2022/04/07 09:14:58;;;;;;;11.93;4.90;;;;;;;;;;10323961;28;20034;-73
2022/04/07 09:19:58;;;;;;;9.82;5.03;;;;;;;;;;10322650;28;20144;-71
2022/04/07 09:25:08;;;;;;;13.13;5.35;;;;;;;;;;10322454;28;20521;-79
2022/04/07 09:30:09;;;;;;;9.10;4.88;;;;;;;;;;10322200;28;20369;-72
2022/04/07 09:35:11;;;;;;;10.85;6.32;;;;;;;;;;10321999;28;20030;-71
2022/04/07 09:40:12;;;;;;;14.85;5.30;;;;;;;;;;10324147;28;20195;-71
2022/04/07 09:45:13;;;;;;;7.32;3.90;;;;;;;;;;10305974;28;20037;-71
2022/04/07 09:50:23;;;;;;;10.25;5.13;;;;;;;;;;10321706;28;20034;-72
2022/04/07 09:55:28;;;;;;;10.68;5.35;;;;;;;;;;10320532;28;20033;-71
2022/04/07 10:00:29;;;;;;;8.15;5.45;;;;;;;;;;10305302;28;20401;-71
2022/04/07 10:05:30;;;;;;;16.55;6.25;;;;;;;;;;10321073;28;20028;-71
2022/04/07 10:10:31;;;;;;;16.70;5.63;;;;;;;;;;10320854;28;20031;-75
2022/04/07 10:15:31;;;;;;;16.25;5.47;;;;;;;;;;10322024;28;20521;-75
2022/04/07 10:20:33;;;;;;;20.52;6.10;;;;;;;;;;10321037;28;20547;-73
2022/04/07 10:25:38;;;;;;;13.93;5.20;;;;;;;;;;10320988;28;20034;-73
2022/04/07 10:30:51;;;;;;;17.80;5.68;;;;;;;;;;10320869;28;20029;-74
2022/04/07 10:35:52;;;;;;;22.00;7.15;;;;;;;;;;10320418;28;20026;-72
2022/04/07 10:40:54;;;;;;;18.98;8.25;;;;;;;;;;10321072;28;20069;-72
2022/04/07 10:46:01;;;;;;;24.67;10.52;;;;;;;;;;10306791;28;20026;-72
2022/04/07 10:51:02;;;;;;;26.10;12.55;;;;;;;;;;10320607;28;20026;-72
2022/04/07 10:56:03;;;;;;;30.77;14.85;;;;;;;;;;10319945;28;20026;-71
2022/04/07 11:01:04;;;;;;;24.53;12.07;;;;;;;;;;10321786;28;20022;-71
2022/04/07 11:06:06;;;;;;;23.83;14.63;;;;;;;;;;10318876;28;20018;-72
2022/04/07 11:11:06;;;;;;;21.08;11.77;;;;;;;;;;10320037;28;20018;-73
2022/04/07 11:16:14;;;;;;;23.97;12.33;;;;;;;;;;10320401;28;20026;-72
2022/04/07 11:21:14;;;;;;;25.03;11.47;;;;;;;;;;10318851;28;20022;-73
2022/04/07 11:26:22;;;;;;;21.83;11.43;;;;;;;;;;10318567;28;20019;-72
2022/04/07 11:32:00;;;;;;;28.43;12.00;;;;;;;;;;10320045;28;20030;-71
2022/04/07 11:37:05;;;;;;;16.58;10.30;;;;;;;;;;10274041;28;20116;-73
2022/04/07 11:42:06;;;;;;;17.25;9.80;;;;;;;;;;10284370;28;20026;-72
2022/04/07 11:47:20;;;;;;;18.05;8.55;;;;;;;;;;10318097;28;20022;-71
2022/04/07 11:52:24;;;;;;;14.82;8.65;;;;;;;;;;10317579;28;20046;-71
2022/04/07 11:57:26;;;;;;;16.88;8.88;;;;;;;;;;10319087;28;20524;-72
2022/04/07 12:02:27;;;;;;;18.45;8.73;;;;;;;;;;10318787;28;20034;-71
2022/04/07 12:07:27;;;;;;;25.25;10.60;;;;;;;;;;10317537;28;20033;-71
2022/04/07 12:12:28;;;;;;;19.40;9.30;;;;;;;;;;10317086;28;20023;-73
2022/04/07 12:17:33;;;;;;;18.45;10.30;;;;;;;;;;10316617;28;20029;-72
2022/04/07 12:22:33;;;;;;;14.73;8.50;;;;;;;;;;10317596;28;20504;-75
2022/04/07 12:27:34;;;;;;;20.55;8.02;;;;;;;;;;10316736;28;20027;-72
2022/04/07 12:32:41;;;;;;;15.35;8.70;;;;;;;;;;10316475;28;20137;-72
2022/04/07 12:37:43;;;;;;;18.13;8.10;;;;;;;;;;10317689;28;20090;-73
2022/04/07 12:42:51;;;;;;;18.00;7.80;;;;;;;;;;10316326;28;20562;-75
2022/04/07 12:48:23;;;;;;;22.83;8.35;;;;;;;;;;10316697;28;20042;-72
2022/04/07 12:53:29;;;;;;;17.65;8.40;;;;;;;;;;10349847;28;20029;-76
2022/04/07 12:58:31;;;;;;;18.35;8.50;;;;;;;;;;10315769;28;20022;-73
2022/04/07 13:03:31;;;;;;;17.25;8.75;;;;;;;;;;10338819;28;20022;-71
2022/04/07 13:08:33;;;;;;;25.05;9.15;;;;;;;;;;10357492;28;20029;-72
2022/04/07 13:13:33;;;;;;;20.17;8.52;;;;;;;;;;10326862;28;20125;-76
2022/04/07 13:18:34;;;;;;;17.42;8.38;;;;;;;;;;10331286;28;20033;-73
2022/04/07 13:23:34;;;;;;;19.92;9.07;;;;;;;;;;10317105;28;20053;-72
2022/04/07 13:28:34;;;;;;;18.20;8.68;;;;;;;;;;10298971;28;20033;-71
2022/04/07 13:33:34;;;;;;;19.73;8.10;;;;;;;;;;10305177;28;20558;-72
2022/04/07 13:38:35;;;;;;;19.92;7.82;;;;;;;;;;10321823;28;20525;-71
2022/04/07 13:43:35;;;;;;;20.23;7.90;;;;;;;;;;10321676;28;20034;-70
2022/04/07 13:48:37;;;;;;;21.90;9.37;;;;;;;;;;10322144;28;20026;-71
2022/04/07 13:53:37;;;;;;;26.33;9.30;;;;;;;;;;10361801;28;20056;-71
2022/04/07 13:58:37;;;;;;;20.02;8.57;;;;;;;;;;10361674;28;20092;-78
2022/04/07 14:03:39;;;;;;;20.27;10.07;;;;;;;;;;10361847;28;20022;-71
2022/04/07 14:08:39;;;;;;;23.13;9.52;;;;;;;;;;10361515;28;20046;-70
2022/04/07 14:13:40;;;;;;;27.63;8.85;;;;;;;;;;10324096;28;20121;-73
2022/04/07 14:18:42;;;;;;;27.08;9.70;;;;;;;;;;10322076;28;20528;-74
2022/04/07 14:23:42;;;;;;;30.08;8.07;;;;;;;;;;10334769;28;20030;-71
2022/04/07 14:28:42;;;;;;;15.93;7.65;;;;;;;;;;10359927;28;20507;-72
2022/04/07 14:33:46;;;;;;;21.13;8.27;;;;;;;;;;10360473;28;20022;-71
2022/04/07 14:38:46;;;;;;;18.42;8.70;;;;;;;;;;10359831;28;20103;-72
2022/04/07 14:43:46;;;;;;;18.08;8.70;;;;;;;;;;10351281;28;20022;-70
2022/04/07 14:48:47;;;;;;;16.73;8.25;;;;;;;;;;10319090;28;20030;-71
2022/04/07 14:53:47;;;;;;;16.73;8.43;;;;;;;;;;10319589;28;20079;-78
2022/04/07 14:58:47;;;;;;;18.00;9.38;;;;;;;;;;10348898;28;20289;-72
2022/04/07 15:03:47;;;;;;;20.08;9.75;;;;;;;;;;10331730;28;20018;-71
2022/04/07 15:08:48;;;;;;;17.40;8.25;;;;;;;;;;10359456;28;20032;-70
2022/04/07 15:13:48;;;;;;;17.42;9.60;;;;;;;;;;10354699;28;20735;-71
2022/04/07 15:18:48;;;;;;;25.98;9.73;;;;;;;;;;10302305;28;20378;-71
2022/04/07 15:23:49;;;;;;;18.83;9.15;;;;;;;;;;10318540;28;20022;-70
2022/04/07 15:28:49;;;;;;;23.13;10.07;;;;;;;;;;10318394;28;20377;-71
2022/04/07 15:33:49;;;;;;;19.47;10.77;;;;;;;;;;10301653;28;20033;-71
2022/04/07 15:38:50;;;;;;;19.27;9.25;;;;;;;;;;10317672;28;20084;-69
2022/04/07 15:43:51;;;;;;;20.15;9.20;;;;;;;;;;10301697;28;20026;-71
2022/04/07 15:48:52;;;;;;;17.27;9.23;;;;;;;;;;10348610;28;20420;-70
2022/04/07 15:53:52;;;;;;;20.92;9.43;;;;;;;;;;10357814;28;20568;-70
2022/04/07 15:58:52;;;;;;;19.63;11.13;;;;;;;;;;10347499;28;20052;-71
2022/04/07 16:03:53;;;;;;;31.05;11.63;;;;;;;;;;10317796;28;20174;-72
2022/04/07 16:08:53;;;;;;;27.00;13.07;;;;;;;;;;10317529;28;20034;-69
2022/04/07 16:13:54;;;;;;;36.63;14.18;;;;;;;;;;10319148;28;20042;-69
2022/04/07 16:18:54;;;;;;;43.25;16.10;;;;;;;;;;10330109;28;20036;-70
2022/04/07 16:23:54;;;;;;;32.63;15.70;;;;;;;;;;10357370;28;20021;-70
2022/04/07 16:28:56;;;;;;;28.83;15.07;;;;;;;;;;10337443;28;20026;-69
2022/04/07 16:33:57;;;;;;;34.55;13.98;;;;;;;;;;10317382;28;20038;-70
2022/04/07 16:38:57;;;;;;;32.03;13.07;;;;;;;;;;10317550;28;20048;-71
2022/04/07 16:43:58;;;;;;;30.25;16.08;;;;;;;;;;10316638;28;20037;-71
2022/04/07 16:48:58;;;;;;;27.55;14.80;;;;;;;;;;10316413;28;20117;-71
2022/04/07 16:53:58;;;;;;;39.63;17.47;;;;;;;;;;10317364;28;20035;-71
2022/04/07 16:58:59;;;;;;;30.40;17.45;;;;;;;;;;10300145;28;20026;-71
2022/04/07 17:03:59;;;;;;;31.47;13.77;;;;;;;;;;10318327;28;20050;-70
2022/04/07 17:08:59;;;;;;;26.40;13.83;;;;;;;;;;10324857;28;20332;-71
2022/04/07 17:14:00;;;;;;;29.33;12.15;;;;;;;;;;10325944;28;20084;-71
2022/04/07 17:19:00;;;;;;;31.17;12.90;;;;;;;;;;10360996;28;20035;-68
2022/04/07 17:24:01;;;;;;;29.98;12.77;;;;;;;;;;10322986;28;20026;-72
2022/04/07 17:29:01;;;;;;;29.80;13.43;;;;;;;;;;10322267;28;20023;-73
2022/04/07 17:34:02;;;;;;;31.65;14.02;;;;;;;;;;10353443;28;20029;-73
2022/04/07 17:39:02;;;;;;;28.50;12.68;;;;;;;;;;10363056;28;20087;-72
2022/04/07 17:44:03;;;;;;;31.98;11.55;;;;;;;;;;10337626;28;20117;-69
2022/04/07 17:49:03;;;;;;;27.47;13.17;;;;;;;;;;10323449;28;20030;-78
2022/04/07 17:54:04;;;;;;;39.77;19.13;;;;;;;;;;10363662;28;20280;-74
2022/04/07 17:59:08;;;;;;;40.17;19.50;;;;;;;;;;10337734;28;20027;-70
2022/04/07 18:04:08;;;;;;;48.33;22.27;;;;;;;;;;10305675;28;20027;-74
2022/04/07 18:09:08;;;;;;;50.17;24.50;;;;;;;;;;10321659;28;20030;-70
2022/04/07 18:14:09;;;;;;;46.20;22.35;;;;;;;;;;10321660;28;20033;-70
2022/04/07 18:19:09;;;;;;;55.58;24.15;;;;;;;;;;10343428;28;20058;-70
2022/04/07 18:24:09;;;;;;;41.67;22.50;;;;;;;;;;10327174;28;20029;-71
2022/04/07 18:29:10;;;;;;;44.47;22.73;;;;;;;;;;10360411;28;20040;-70
2022/04/07 18:34:10;;;;;;;31.10;13.43;;;;;;;;;;10353056;28;20109;-70
2022/04/07 18:39:12;;;;;;;25.45;10.88;;;;;;;;;;10343497;28;20051;-74
2022/04/07 18:44:12;;;;;;;20.52;10.82;;;;;;;;;;10320219;28;20026;-70
2022/04/07 18:49:13;;;;;;;17.43;9.83;;;;;;;;;;10321951;28;20030;-76
2022/04/07 18:54:13;;;;;;;13.48;7.65;;;;;;;;;;10324745;28;20040;-71
2022/04/07 18:59:15;;;;;;;11.75;6.00;;;;;;;;;;10332165;28;20038;-73
2022/04/07 19:04:16;;;;;;;11.57;5.95;;;;;;;;;;10317764;28;20022;-69
2022/04/07 19:09:17;;;;;;;15.98;7.18;;;;;;;;;;10352570;28;20030;-74
2022/04/07 19:14:17;;;;;;;13.40;4.38;;;;;;;;;;10352496;28;20079;-71
2022/04/07 19:19:18;;;;;;;7.85;2.88;;;;;;;;;;10342633;28;20036;-72
2022/04/07 19:24:18;;;;;;;10.52;3.35;;;;;;;;;;10356666;28;20022;-73
2022/04/07 19:29:18;;;;;;;11.60;4.45;;;;;;;;;;10354175;28;20477;-76
2022/04/07 19:34:19;;;;;;;8.03;4.07;;;;;;;;;;10355781;28;20018;-67
2022/04/07 19:39:19;;;;;;;11.70;3.85;;;;;;;;;;10333643;28;20050;-70
2022/04/07 19:44:20;;;;;;;14.27;4.50;;;;;;;;;;10301319;28;20030;-75
2022/04/07 19:49:20;;;;;;;12.13;5.40;;;;;;;;;;10318568;28;20034;-72
2022/04/07 19:54:21;;;;;;;9.88;4.55;;;;;;;;;;10317284;28;20080;-70
2022/04/07 19:59:21;;;;;;;6.80;4.97;;;;;;;;;;10343028;28;20113;-74
2022/04/07 20:04:22;;;;;;;11.15;4.47;;;;;;;;;;10333144;28;20030;-73
2022/04/07 20:09:22;;;;;;;10.35;4.07;;;;;;;;;;10316810;28;20535;-75
2022/04/07 20:14:23;;;;;;;14.17;4.90;;;;;;;;;;10316865;28;20030;-70
2022/04/07 20:19:24;;;;;;;14.90;3.50;;;;;;;;;;10300279;28;20477;-73
2022/04/07 20:24:25;;;;;;;7.25;3.33;;;;;;;;;;10322827;28;20108;-70
2022/04/07 20:29:25;;;;;;;8.65;3.83;;;;;;;;;;10356785;28;20118;-74
2022/04/07 20:34:30;;;;;;;7.10;2.38;;;;;;;;;;10355638;28;20026;-71
2022/04/07 20:39:30;;;;;;;6.18;3.20;;;;;;;;;;10340712;28;20455;-73
2022/04/07 20:44:31;;;;;;;5.65;2.53;;;;;;;;;;10352790;28;20030;-72
2022/04/07 20:49:34;;;;;;;2.97;2.03;;;;;;;;;;10315989;28;20485;-72
2022/04/07 20:54:36;;;;;;;3.78;2.05;;;;;;;;;;10318865;28;20093;-74
2022/04/07 20:59:37;;;;;;;2.78;1.85;;;;;;;;;;10334456;28;20022;-71
2022/04/07 21:04:37;;;;;;;3.55;1.55;;;;;;;;;;10358212;28;20026;-74
2022/04/07 21:09:40;;;;;;;2.38;1.58;;;;;;;;;;10358463;28;20513;-74
2022/04/07 21:14:40;;;;;;;3.65;1.73;;;;;;;;;;10356742;28;20029;-71
2022/04/07 21:19:41;;;;;;;3.63;1.45;;;;;;;;;;10356586;28;20067;-74
2022/04/07 21:24:41;;;;;;;5.60;1.83;;;;;;;;;;10357148;28;20037;-70
2022/04/07 21:29:41;;;;;;;4.30;2.03;;;;;;;;;;10357680;28;20500;-71
2022/04/07 21:34:41;;;;;;;4.00;1.83;;;;;;;;;;10356041;28;20029;-70
2022/04/07 21:39:42;;;;;;;2.53;1.40;;;;;;;;;;10339510;28;20527;-70
2022/04/07 21:44:42;;;;;;;1.20;1.10;;;;;;;;;;10356164;28;20600;-69
2022/04/07 21:49:42;;;;;;;1.47;0.90;;;;;;;;;;10355791;28;20037;-70
2022/04/07 21:54:43;;;;;;;3.25;1.42;;;;;;;;;;10362727;28;20037;-71
2022/04/07 21:59:43;;;;;;;1.65;1.20;;;;;;;;;;10363554;28;20095;-71
2022/04/07 22:04:43;;;;;;;2.87;1.23;;;;;;;;;;10354948;28;20030;-70
2022/04/07 22:09:43;;;;;;;2.15;1.45;;;;;;;;;;10321478;28;20026;-69
2022/04/07 22:14:44;;;;;;;4.18;1.70;;;;;;;;;;10321937;28;20171;-69
2022/04/07 22:19:44;;;;;;;1.73;1.60;;;;;;;;;;10305431;28;20031;-70
2022/04/07 22:24:44;;;;;;;7.17;3.30;;;;;;;;;;10321077;28;20027;-71
2022/04/07 22:29:45;;;;;;;7.60;3.38;;;;;;;;;;10321253;28;20030;-73
2022/04/07 22:34:45;;;;;;;5.65;3.42;;;;;;;;;;10320908;28;20117;-71
2022/04/07 22:39:46;;;;;;;7.72;3.55;;;;;;;;;;10321778;28;20050;-70
2022/04/07 22:44:46;;;;;;;5.80;3.80;;;;;;;;;;10320688;28;20030;-70
2022/04/07 22:49:46;;;;;;;8.73;3.80;;;;;;;;;;10320644;28;20022;-73
2022/04/07 22:54:47;;;;;;;6.40;3.78;;;;;;;;;;10321537;28;20026;-72
2022/04/07 22:59:47;;;;;;;8.90;3.95;;;;;;;;;;10321200;28;20028;-70
2022/04/07 23:04:47;;;;;;;6.10;4.15;;;;;;;;;;10320009;28;20021;-69
2022/04/07 23:09:47;;;;;;;5.13;3.00;;;;;;;;;;10320283;28;20109;-71
2022/04/07 23:14:48;;;;;;;7.05;3.92;;;;;;;;;;10319767;28;20030;-70
2022/04/07 23:19:48;;;;;;;11.30;4.60;;;;;;;;;;10319598;28;20486;-68
2022/04/07 23:24:50;;;;;;;8.35;3.65;;;;;;;;;;10303158;28;20022;-70
2022/04/07 23:29:50;;;;;;;6.07;3.15;;;;;;;;;;10319040;28;20022;-70
2022/04/07 23:34:51;;;;;;;11.47;4.20;;;;;;;;;;10319162;28;20026;-71
2022/04/07 23:39:51;;;;;;;4.55;3.20;;;;;;;;;;10302608;28;20061;-75
2022/04/07 23:44:51;;;;;;;4.97;2.80;;;;;;;;;;10318857;28;20057;-71
2022/04/07 23:49:52;;;;;;;7.67;3.23;;;;;;;;;;10320020;28;20412;-71
2022/04/07 23:54:52;;;;;;;6.73;3.93;;;;;;;;;;10318595;28;20030;-71
2022/04/07 23:59:52;;;;;;;7.33;3.60;;;;;;;;;;10318586;28;20471;-70
